Cascade, West Virginia
Current Conditions -  °F | °C
As of 9:31 AM on Wednesday 22 Oct 2014 (Local Time) from KMGW Reporting Station
Overcast Overcast  
Wind Chill: 46°   Ceiling: 1300
Heat Index: 49°   Visibility: 10mi
Dew Point: 42°   Wind: 7mph
Humidity: 77%   Direction: 360°N
Pressure: 30.14"   Gusts: NA
Location:  39.5803°N, 79.7924°W
Report Text: KMGW 221331Z 36006KT 10SM BKN013 OVC018 09/06 A3014 RMK AO2 T00940056
Loading
Personal Weather Stations






























Interactive Weather Map
Tropical Storm Tracking
New forecast layout! Learn more

10-Day Weather Forecast

Advertisements
Track Severe Weather on mobile